ENGM/OSL METAR and TAF weather

Enter ICAO airport designator
Station Type Date Time Source
ENGM METAR 2023/02/05 14:20 UTC NOAA

ENGM 051420Z VRB02KT 7000 FEW004 M02/M03 Q1032 NOSIG


Station Type Date Time Source
ENGM Decoded METAR 2023/02/05 14:20 UTC NOAA

Oslo / Gardermoen, Norway (ENGM) 60-12N 011-05E 204M
Feb 05, 2023 - 09:20 AM EST / 2023.02.05 1420 UTC
Wind: Variable at 2 MPH (2 KT):0
Visibility: 4 mile(s):0
Sky conditions: mostly clear
Temperature: 28 F (-2 C)
Dew Point: 26 F (-3 C)
Relative Humidity: 92%
Pressure (altimeter): 30.47 in. Hg (1032 hPa)
ob: ENGM 051420Z VRB02KT 7000 FEW004 M02/M03 Q1032 NOSIG
cycle: 14

Station Type Date Time Source
ENGM TAF 2023/02/05 12:57 UTC NOAA

TAF ENGM 051100Z 0512/0612 02003KT CAVOK PROB30
TEMPO 0512/0513 0250 FZFG VV001 PROB40 0600/0609 0250 FZFG VV001

Example: see airport list